sensor_id;sensor_type;location;lat;lon;timestamp;pressure;altitude;pressure_sealevel;temperature;humidity
11114;BME280;5610;52.154;9.198;2024-01-30T00:00:43;101963.22;;;4.69;100.00
11114;BME280;5610;52.154;9.198;2024-01-30T00:03:28;101957.97;;;4.67;100.00
11114;BME280;5610;52.154;9.198;2024-01-30T00:06:14;101955.28;;;4.71;100.00
11114;BME280;5610;52.154;9.198;2024-01-30T00:08:59;101950.03;;;4.69;100.00
11114;BME280;5610;52.154;9.198;2024-01-30T00:11:46;101956.16;;;4.73;100.00
11114;BME280;5610;52.154;9.198;2024-01-30T00:14:33;101959.66;;;4.72;100.00
11114;BME280;5610;52.154;9.198;2024-01-30T00:17:18;101956.91;;;4.79;100.00
11114;BME280;5610;52.154;9.198;2024-01-30T00:20:05;101957.66;;;4.87;100.00
11114;BME280;5610;52.154;9.198;2024-01-30T00:22:53;101964.63;;;4.91;100.00
11114;BME280;5610;52.154;9.198;2024-01-30T00:25:38;101961.81;;;5.02;100.00
11114;BME280;5610;52.154;9.198;2024-01-30T00:28:23;101967.75;;;5.13;100.00
11114;BME280;5610;52.154;9.198;2024-01-30T00:31:10;101960.66;;;5.17;100.00
11114;BME280;5610;52.154;9.198;2024-01-30T00:33:56;101964.88;;;5.27;100.00
11114;BME280;5610;52.154;9.198;2024-01-30T00:36:41;101963.91;;;5.31;100.00
11114;BME280;5610;52.154;9.198;2024-01-30T00:39:26;101970.91;;;5.34;100.00
11114;BME280;5610;52.154;9.198;2024-01-30T00:42:11;101962.03;;;5.38;100.00
11114;BME280;5610;52.154;9.198;2024-01-30T00:44:57;101966.28;;;5.46;100.00
11114;BME280;5610;52.154;9.198;2024-01-30T00:47:44;101952.09;;;5.49;100.00
11114;BME280;5610;52.154;9.198;2024-01-30T00:50:29;101956.53;;;5.50;100.00
11114;BME280;5610;52.154;9.198;2024-01-30T00:53:14;101961.06;;;5.43;100.00
11114;BME280;5610;52.154;9.198;2024-01-30T00:55:59;101950.44;;;5.45;100.00
11114;BME280;5610;52.154;9.198;2024-01-30T00:58:44;101966.28;;;5.46;100.00
11114;BME280;5610;52.154;9.198;2024-01-30T01:01:29;101959.31;;;5.41;100.00
11114;BME280;5610;52.154;9.198;2024-01-30T01:04:16;101958.72;;;5.27;100.00
11114;BME280;5610;52.154;9.198;2024-01-30T01:07:02;101956.31;;;5.13;100.00
11114;BME280;5610;52.154;9.198;2024-01-30T01:09:47;101969.66;;;5.05;100.00
11114;BME280;5610;52.154;9.198;2024-01-30T01:12:32;101963.75;;;4.91;100.00
11114;BME280;5610;52.154;9.198;2024-01-30T01:15:18;101968.25;;;4.84;100.00
11114;BME280;5610;52.154;9.198;2024-01-30T01:18:03;101963.03;;;4.81;100.00
11114;BME280;5610;52.154;9.198;2024-01-30T01:20:50;101965.66;;;4.83;100.00
11114;BME280;5610;52.154;9.198;2024-01-30T01:23:35;101969.25;;;4.77;100.00
11114;BME280;5610;52.154;9.198;2024-01-30T01:26:20;101966.81;;;4.66;100.00
11114;BME280;5610;52.154;9.198;2024-01-30T01:29:06;101970.34;;;4.65;100.00
11114;BME280;5610;52.154;9.198;2024-01-30T01:31:54;101970.34;;;4.65;100.00
11114;BME280;5610;52.154;9.198;2024-01-30T01:34:39;101970.28;;;4.68;100.00
11114;BME280;5610;52.154;9.198;2024-01-30T01:37:27;101960.66;;;4.64;100.00
11114;BME280;5610;52.154;9.198;2024-01-30T01:40:12;101960.59;;;4.69;100.00
11114;BME280;5610;52.154;9.198;2024-01-30T01:42:58;101952.66;;;4.69;100.00
11114;BME280;5610;52.154;9.198;2024-01-30T01:45:43;101957.00;;;4.75;100.00
11114;BME280;5610;52.154;9.198;2024-01-30T01:48:28;101956.91;;;4.79;100.00
11114;BME280;5610;52.154;9.198;2024-01-30T01:51:14;101949.00;;;4.78;100.00
11114;BME280;5610;52.154;9.198;2024-01-30T01:54:03;101955.13;;;4.81;100.00
11114;BME280;5610;52.154;9.198;2024-01-30T01:56:48;101943.63;;;4.84;100.00
11114;BME280;5610;52.154;9.198;2024-01-30T01:59:34;101940.06;;;4.86;100.00
11114;BME280;5610;52.154;9.198;2024-01-30T02:02:20;101943.66;;;4.82;100.00
11114;BME280;5610;52.154;9.198;2024-01-30T02:05:08;101937.44;;;4.86;100.00
11114;BME280;5610;52.154;9.198;2024-01-30T02:07:54;101935.53;;;4.93;100.00
11114;BME280;5610;52.154;9.198;2024-01-30T02:10:41;101935.28;;;5.08;100.00
11114;BME280;5610;52.154;9.198;2024-01-30T02:13:26;101929.06;;;5.11;100.00
11114;BME280;5610;52.154;9.198;2024-01-30T02:16:12;101921.72;;;5.27;100.00
11114;BME280;5610;52.154;9.198;2024-01-30T02:18:57;101921.56;;;5.34;100.00
11114;BME280;5610;52.154;9.198;2024-01-30T02:21:44;101916.88;;;5.48;100.00
11114;BME280;5610;52.154;9.198;2024-01-30T02:24:30;101909.81;;;5.49;100.00
11114;BME280;5610;52.154;9.198;2024-01-30T02:27:15;101914.19;;;5.51;100.00
11114;BME280;5610;52.154;9.198;2024-01-30T02:30:00;101907.13;;;5.52;100.00
11114;BME280;5610;52.154;9.198;2024-01-30T02:32:46;101917.97;;;5.38;100.00
11114;BME280;5610;52.154;9.198;2024-01-30T02:35:31;101912.53;;;5.46;100.00
11114;BME280;5610;52.154;9.198;2024-01-30T02:38:18;101906.28;;;5.48;100.00
11114;BME280;5610;52.154;9.198;2024-01-30T02:41:04;101901.91;;;5.47;100.00
11114;BME280;5610;52.154;9.198;2024-01-30T02:43:49;101896.63;;;5.47;100.00
11114;BME280;5610;52.154;9.198;2024-01-30T02:46:34;101892.31;;;5.43;100.00
11114;BME280;5610;52.154;9.198;2024-01-30T02:49:20;101894.13;;;5.40;100.00
11114;BME280;5610;52.154;9.198;2024-01-30T02:52:05;101890.75;;;5.33;100.00
11114;BME280;5610;52.154;9.198;2024-01-30T02:54:51;101887.44;;;5.23;100.00
11114;BME280;5610;52.154;9.198;2024-01-30T02:57:36;101883.09;;;5.19;100.00
11114;BME280;5610;52.154;9.198;2024-01-30T03:00:22;101876.06;;;5.18;100.00
11114;BME280;5610;52.154;9.198;2024-01-30T03:03:07;101874.41;;;5.13;100.00
11114;BME280;5610;52.154;9.198;2024-01-30T03:05:52;101872.63;;;5.15;100.00
11114;BME280;5610;52.154;9.198;2024-01-30T03:08:37;101867.22;;;5.19;100.00
11114;BME280;5610;52.154;9.198;2024-01-30T03:11:24;101869.22;;;5.08;100.00
11114;BME280;5610;52.154;9.198;2024-01-30T03:14:09;101867.34;;;5.13;100.00
11114;BME280;5610;52.154;9.198;2024-01-30T03:16:55;101857.66;;;5.14;100.00
11114;BME280;5610;52.154;9.198;2024-01-30T03:19:40;101853.13;;;5.20;100.00
11114;BME280;5610;52.154;9.198;2024-01-30T03:22:25;101854.03;;;5.19;100.00
11114;BME280;5610;52.154;9.198;2024-01-30T03:25:10;101854.88;;;5.20;100.00
11114;BME280;5610;52.154;9.198;2024-01-30T03:27:57;101845.19;;;5.22;100.00
11114;BME280;5610;52.154;9.198;2024-01-30T03:30:42;101847.59;;;5.33;100.00
11114;BME280;5610;52.154;9.198;2024-01-30T03:33:28;101851.22;;;5.27;100.00
11114;BME280;5610;52.154;9.198;2024-01-30T03:36:15;101846.88;;;5.24;100.00
11114;BME280;5610;52.154;9.198;2024-01-30T03:39:01;101842.50;;;5.23;100.00
11114;BME280;5610;52.154;9.198;2024-01-30T03:41:47;101841.75;;;5.17;100.00
11114;BME280;5610;52.154;9.198;2024-01-30T03:44:33;101841.69;;;5.20;100.00
11114;BME280;5610;52.154;9.198;2024-01-30T03:47:18;101834.66;;;5.19;100.00
11114;BME280;5610;52.154;9.198;2024-01-30T03:50:04;101848.75;;;5.19;100.00
11114;BME280;5610;52.154;9.198;2024-01-30T03:52:49;101845.25;;;5.17;100.00
11114;BME280;5610;52.154;9.198;2024-01-30T03:55:35;101847.09;;;5.14;100.00
11114;BME280;5610;52.154;9.198;2024-01-30T03:58:20;101838.34;;;5.10;100.00
11114;BME280;5610;52.154;9.198;2024-01-30T04:01:07;101839.31;;;5.08;100.00
11114;BME280;5610;52.154;9.198;2024-01-30T04:03:52;101832.66;;;4.85;100.00
11114;BME280;5610;52.154;9.198;2024-01-30T04:06:37;101830.06;;;4.84;100.00
11114;BME280;5610;52.154;9.198;2024-01-30T04:09:22;101837.22;;;4.77;100.00
11114;BME280;5610;52.154;9.198;2024-01-30T04:12:08;101833.34;;;4.96;100.00
11114;BME280;5610;52.154;9.198;2024-01-30T04:14:53;101834.50;;;4.82;100.00
11114;BME280;5610;52.154;9.198;2024-01-30T04:17:40;101824.97;;;4.75;100.00
11114;BME280;5610;52.154;9.198;2024-01-30T04:20:25;101837.06;;;4.85;100.00
11114;BME280;5610;52.154;9.198;2024-01-30T04:23:11;101832.69;;;4.84;100.00
11114;BME280;5610;52.154;9.198;2024-01-30T04:25:56;101834.41;;;4.88;100.00
11114;BME280;5610;52.154;9.198;2024-01-30T04:28:41;101827.28;;;4.91;100.00
11114;BME280;5610;52.154;9.198;2024-01-30T04:31:26;101835.31;;;4.87;100.00
11114;BME280;5610;52.154;9.198;2024-01-30T04:34:13;101819.13;;;5.04;100.00
11114;BME280;5610;52.154;9.198;2024-01-30T04:36:58;101818.38;;;4.97;100.00
11114;BME280;5610;52.154;9.198;2024-01-30T04:39:44;101816.50;;;5.02;100.00
11114;BME280;5610;52.154;9.198;2024-01-30T04:42:29;101825.16;;;5.10;100.00
11114;BME280;5610;52.154;9.198;2024-01-30T04:45:14;101818.06;;;5.12;100.00
11114;BME280;5610;52.154;9.198;2024-01-30T04:47:59;101824.41;;;5.04;100.00
11114;BME280;5610;52.154;9.198;2024-01-30T04:50:45;101816.28;;;5.13;100.00
11114;BME280;5610;52.154;9.198;2024-01-30T04:53:31;101818.84;;;5.17;100.00
11114;BME280;5610;52.154;9.198;2024-01-30T04:56:16;101825.19;;;5.07;100.00
11114;BME280;5610;52.154;9.198;2024-01-30T04:59:01;101820.84;;;5.05;100.00
11114;BME280;5610;52.154;9.198;2024-01-30T05:01:47;101820.81;;;5.08;100.00
11114;BME280;5610;52.154;9.198;2024-01-30T05:04:32;101814.13;;;4.88;100.00
11114;BME280;5610;52.154;9.198;2024-01-30T05:07:18;101817.47;;;4.98;100.00
11114;BME280;5610;52.154;9.198;2024-01-30T05:10:04;101813.69;;;5.11;100.00
11114;BME280;5610;52.154;9.198;2024-01-30T05:12:49;101821.84;;;4.99;100.00
11114;BME280;5610;52.154;9.198;2024-01-30T05:15:35;101819.81;;;5.12;100.00
11114;BME280;5610;52.154;9.198;2024-01-30T05:18:20;101819.91;;;5.09;100.00
11114;BME280;5610;52.154;9.198;2024-01-30T05:21:05;101823.38;;;5.11;100.00
11114;BME280;5610;52.154;9.198;2024-01-30T05:23:52;101823.56;;;5.00;100.00
11114;BME280;5610;52.154;9.198;2024-01-30T05:26:37;101822.50;;;5.10;100.00
11114;BME280;5610;52.154;9.198;2024-01-30T05:29:22;101821.47;;;5.17;100.00
11114;BME280;5610;52.154;9.198;2024-01-30T05:32:07;101815.22;;;5.23;100.00
11114;BME280;5610;52.154;9.198;2024-01-30T05:34:52;101814.97;;;5.34;100.00
11114;BME280;5610;52.154;9.198;2024-01-30T05:37:37;101824.53;;;5.39;100.00
11114;BME280;5610;52.154;9.198;2024-01-30T05:40:24;101814.88;;;5.38;100.00
11114;BME280;5610;52.154;9.198;2024-01-30T05:43:09;101817.56;;;5.35;100.00
11114;BME280;5610;52.154;9.198;2024-01-30T05:45:54;101820.34;;;5.31;100.00
11114;BME280;5610;52.154;9.198;2024-01-30T05:48:39;101814.09;;;5.33;100.00
11114;BME280;5610;52.154;9.198;2024-01-30T05:51:24;101808.78;;;5.35;100.00
11114;BME280;5610;52.154;9.198;2024-01-30T05:54:10;101809.63;;;5.35;100.00
11114;BME280;5610;52.154;9.198;2024-01-30T05:56:57;101806.88;;;5.43;100.00
11114;BME280;5610;52.154;9.198;2024-01-30T05:59:42;101810.28;;;5.46;100.00
11114;BME280;5610;52.154;9.198;2024-01-30T06:02:28;101803.19;;;5.50;100.00
11114;BME280;5610;52.154;9.198;2024-01-30T06:05:13;101807.56;;;5.49;100.00
11114;BME280;5610;52.154;9.198;2024-01-30T06:07:58;101805.69;;;5.55;100.00
11114;BME280;5610;52.154;9.198;2024-01-30T06:10:43;101803.00;;;5.56;100.00
11114;BME280;5610;52.154;9.198;2024-01-30T06:13:29;101804.88;;;5.53;100.00
11114;BME280;5610;52.154;9.198;2024-01-30T06:16:16;101806.00;;;5.41;100.00
11114;BME280;5610;52.154;9.198;2024-01-30T06:19:01;101795.31;;;5.47;100.00
11114;BME280;5610;52.154;9.198;2024-01-30T06:21:46;101795.16;;;5.53;100.00
11114;BME280;5610;52.154;9.198;2024-01-30T06:24:31;101795.25;;;5.48;100.00
11114;BME280;5610;52.154;9.198;2024-01-30T06:27:17;101790.97;;;5.44;100.00
11114;BME280;5610;52.154;9.198;2024-01-30T06:30:05;101791.84;;;5.45;100.00
11114;BME280;5610;52.154;9.198;2024-01-30T06:32:50;101790.22;;;5.38;100.00
11114;BME280;5610;52.154;9.198;2024-01-30T06:35:35;101795.47;;;5.39;100.00
11114;BME280;5610;52.154;9.198;2024-01-30T06:38:23;101789.22;;;5.43;100.00
11114;BME280;5610;52.154;9.198;2024-01-30T06:41:08;101794.53;;;5.42;100.00
11114;BME280;5610;52.154;9.198;2024-01-30T06:43:54;101798.75;;;5.50;100.00
11114;BME280;5610;52.154;9.198;2024-01-30T06:46:40;101792.44;;;5.56;100.00
11114;BME280;5610;52.154;9.198;2024-01-30T06:49:26;101794.81;;;5.68;100.00
11114;BME280;5610;52.154;9.198;2024-01-30T06:52:11;101797.09;;;5.84;100.00
11114;BME280;5610;52.154;9.198;2024-01-30T06:54:56;101791.81;;;5.84;100.00
11114;BME280;5610;52.154;9.198;2024-01-30T06:57:41;101807.53;;;5.90;100.00
11114;BME280;5610;52.154;9.198;2024-01-30T07:00:26;101801.38;;;5.89;100.00
11114;BME280;5610;52.154;9.198;2024-01-30T07:03:13;101807.34;;;5.99;100.00
11114;BME280;5610;52.154;9.198;2024-01-30T07:05:58;101807.28;;;6.02;100.00
11114;BME280;5610;52.154;9.198;2024-01-30T07:08:43;101798.59;;;5.97;100.00
11114;BME280;5610;52.154;9.198;2024-01-30T07:11:29;101799.22;;;6.08;100.00
11114;BME280;5610;52.154;9.198;2024-01-30T07:14:15;101794.84;;;6.07;100.00
11114;BME280;5610;52.154;9.198;2024-01-30T07:16:59;101796.66;;;6.03;100.00
11114;BME280;5610;52.154;9.198;2024-01-30T07:19:46;101797.44;;;6.09;100.00
11114;BME280;5610;52.154;9.198;2024-01-30T07:22:32;101799.59;;;5.91;100.00
11114;BME280;5610;52.154;9.198;2024-01-30T07:25:17;101798.84;;;5.85;100.00
11114;BME280;5610;52.154;9.198;2024-01-30T07:28:03;101800.19;;;6.04;100.00
11114;BME280;5610;52.154;9.198;2024-01-30T07:30:48;101793.69;;;6.17;100.00
11114;BME280;5610;52.154;9.198;2024-01-30T07:33:35;101794.41;;;6.24;100.00
11114;BME280;5610;52.154;9.198;2024-01-30T07:36:21;101799.66;;;6.25;100.00
11114;BME280;5610;52.154;9.198;2024-01-30T07:39:06;101785.88;;;6.11;100.00
11114;BME280;5610;52.154;9.198;2024-01-30T07:41:52;101792.47;;;6.30;100.00
11114;BME280;5610;52.154;9.198;2024-01-30T07:44:37;101789.56;;;6.40;100.00
11114;BME280;5610;52.154;9.198;2024-01-30T07:47:22;101788.66;;;6.41;100.00
11114;BME280;5610;52.154;9.198;2024-01-30T07:50:08;101778.78;;;6.47;100.00
11114;BME280;5610;52.154;9.198;2024-01-30T07:52:55;101788.50;;;6.47;100.00
11114;BME280;5610;52.154;9.198;2024-01-30T07:55:40;101796.59;;;6.41;100.00
11114;BME280;5610;52.154;9.198;2024-01-30T07:58:28;101792.06;;;6.46;100.00
11114;BME280;5610;52.154;9.198;2024-01-30T08:01:14;101797.31;;;6.49;100.00
11114;BME280;5610;52.154;9.198;2024-01-30T08:04:00;101807.00;;;6.48;100.00
11114;BME280;5610;52.154;9.198;2024-01-30T08:06:45;101810.41;;;6.53;100.00
11114;BME280;5610;52.154;9.198;2024-01-30T08:09:31;101804.13;;;6.57;100.00
11114;BME280;5610;52.154;9.198;2024-01-30T08:12:16;101808.56;;;6.57;100.00
11114;BME280;5610;52.154;9.198;2024-01-30T08:15:01;101815.75;;;6.52;100.00
11114;BME280;5610;52.154;9.198;2024-01-30T08:17:47;101803.22;;;6.58;100.00
11114;BME280;5610;52.154;9.198;2024-01-30T08:20:32;101807.38;;;6.67;100.00
11114;BME280;5610;52.154;9.198;2024-01-30T08:23:17;101805.41;;;6.75;100.00
11114;BME280;5610;52.154;9.198;2024-01-30T08:26:04;101811.25;;;6.88;100.00
11114;BME280;5610;52.154;9.198;2024-01-30T08:28:49;101811.81;;;6.99;100.00
11114;BME280;5610;52.154;9.198;2024-01-30T08:31:35;101809.13;;;7.01;100.00
11114;BME280;5610;52.154;9.198;2024-01-30T08:34:20;101811.03;;;6.96;100.00
11114;BME280;5610;52.154;9.198;2024-01-30T08:37:06;101808.91;;;7.08;100.00
11114;BME280;5610;52.154;9.198;2024-01-30T08:39:51;101803.31;;;7.19;100.00
11114;BME280;5610;52.154;9.198;2024-01-30T08:42:38;101799.56;;;7.26;100.00
11114;BME280;5610;52.154;9.198;2024-01-30T08:45:23;101798.13;;;7.44;100.00
11114;BME280;5610;52.154;9.198;2024-01-30T08:48:08;101801.19;;;7.60;100.00
11114;BME280;5610;52.154;9.198;2024-01-30T08:50:54;101799.09;;;7.71;100.00
11114;BME280;5610;52.154;9.198;2024-01-30T08:53:40;101798.72;;;7.82;100.00
11114;BME280;5610;52.154;9.198;2024-01-30T08:56:26;101798.47;;;7.91;100.00
11114;BME280;5610;52.154;9.198;2024-01-30T08:59:12;101788.28;;;7.77;100.00
11114;BME280;5610;52.154;9.198;2024-01-30T09:01:58;101782.59;;;7.89;100.00
11114;BME280;5610;52.154;9.198;2024-01-30T09:04:43;101786.47;;;8.06;100.00
11114;BME280;5610;52.154;9.198;2024-01-30T09:07:28;101794.03;;;8.18;100.00
11114;BME280;5610;52.154;9.198;2024-01-30T09:10:13;101793.38;;;8.38;100.00
11114;BME280;5610;52.154;9.198;2024-01-30T09:12:59;101794.75;;;8.49;100.00
11114;BME280;5610;52.154;9.198;2024-01-30T09:15:45;101799.44;;;8.68;100.00
11114;BME280;5610;52.154;9.198;2024-01-30T09:18:31;101800.75;;;8.81;100.00
11114;BME280;5610;52.154;9.198;2024-01-30T09:21:16;101802.84;;;8.96;100.00
11114;BME280;5610;52.154;9.198;2024-01-30T09:24:03;101810.34;;;9.08;100.00
11114;BME280;5610;52.154;9.198;2024-01-30T09:26:48;101807.97;;;9.26;100.00
11114;BME280;5610;52.154;9.198;2024-01-30T09:29:34;101810.84;;;9.43;100.00
11114;BME280;5610;52.154;9.198;2024-01-30T09:32:21;101810.28;;;9.58;100.00
11114;BME280;5610;52.154;9.198;2024-01-30T09:35:07;101800.53;;;9.79;100.00
11114;BME280;5610;52.154;9.198;2024-01-30T09:37:53;101808.81;;;9.95;100.00
11114;BME280;5610;52.154;9.198;2024-01-30T09:40:38;101813.50;;;10.10;100.00
11114;BME280;5610;52.154;9.198;2024-01-30T09:43:23;101802.47;;;10.19;100.00
11114;BME280;5610;52.154;9.198;2024-01-30T09:46:11;101800.41;;;10.48;100.00
11114;BME280;5610;52.154;9.198;2024-01-30T09:48:58;101800.69;;;10.62;100.00
11114;BME280;5610;52.154;9.198;2024-01-30T09:51:44;101805.63;;;10.71;100.00
11114;BME280;5610;52.154;9.198;2024-01-30T09:54:30;101812.88;;;10.88;100.00
11114;BME280;5610;52.154;9.198;2024-01-30T09:57:15;101805.41;;;10.96;100.00
11114;BME280;5610;52.154;9.198;2024-01-30T10:00:01;101802.13;;;11.10;100.00
11114;BME280;5610;52.154;9.198;2024-01-30T10:02:55;101795.94;;;11.28;100.00
11114;BME280;5610;52.154;9.198;2024-01-30T10:05:44;101784.47;;;11.45;100.00
11114;BME280;5610;52.154;9.198;2024-01-30T10:08:35;101771.06;;;11.66;100.00
11114;BME280;5610;52.154;9.198;2024-01-30T10:11:20;101779.41;;;11.96;100.00
11114;BME280;5610;52.154;9.198;2024-01-30T10:14:06;101781.22;;;11.95;100.00
11114;BME280;5610;52.154;9.198;2024-01-30T10:16:51;101786.25;;;12.01;100.00
11114;BME280;5610;52.154;9.198;2024-01-30T10:19:38;101786.13;;;12.22;100.00
11114;BME280;5610;52.154;9.198;2024-01-30T10:22:24;101786.38;;;12.34;100.00
11114;BME280;5610;52.154;9.198;2024-01-30T10:25:10;101778.84;;;12.43;100.00
11114;BME280;5610;52.154;9.198;2024-01-30T10:27:55;101787.41;;;12.49;100.00
11114;BME280;5610;52.154;9.198;2024-01-30T10:30:41;101784.56;;;12.52;100.00
11114;BME280;5610;52.154;9.198;2024-01-30T10:33:26;101786.38;;;12.52;100.00
11114;BME280;5610;52.154;9.198;2024-01-30T10:36:13;101785.81;;;12.45;100.00
11114;BME280;5610;52.154;9.198;2024-01-30T10:39:01;101785.34;;;12.37;100.00
11114;BME280;5610;52.154;9.198;2024-01-30T10:41:47;101783.50;;;12.03;100.00
11114;BME280;5610;52.154;9.198;2024-01-30T10:44:39;101789.59;;;11.88;100.00
11114;BME280;5610;52.154;9.198;2024-01-30T10:47:28;101783.47;;;11.86;100.00
11114;BME280;5610;52.154;9.198;2024-01-30T10:50:14;101778.28;;;11.82;100.00
11114;BME280;5610;52.154;9.198;2024-01-30T10:53:00;101774.09;;;11.77;100.00
11114;BME280;5610;52.154;9.198;2024-01-30T10:55:48;101782.44;;;11.69;100.00
11114;BME280;5610;52.154;9.198;2024-01-30T10:58:36;101768.31;;;11.67;100.00
11114;BME280;5610;52.154;9.198;2024-01-30T11:01:22;101779.72;;;11.71;100.00
11114;BME280;5610;52.154;9.198;2024-01-30T11:04:09;101786.41;;;11.79;100.00
11114;BME280;5610;52.154;9.198;2024-01-30T11:06:54;101780.44;;;11.93;100.00
11114;BME280;5610;52.154;9.198;2024-01-30T11:09:39;101780.88;;;12.20;100.00
11114;BME280;5610;52.154;9.198;2024-01-30T11:12:27;101773.97;;;13.01;100.00
11114;BME280;5610;52.154;9.198;2024-01-30T11:15:14;101768.94;;;14.37;100.00
11114;BME280;5610;52.154;9.198;2024-01-30T11:18:01;101760.56;;;15.86;88.54
11114;BME280;5610;52.154;9.198;2024-01-30T11:20:46;101759.94;;;17.13;72.56
11114;BME280;5610;52.154;9.198;2024-01-30T11:23:34;101751.44;;;17.55;67.95
11114;BME280;5610;52.154;9.198;2024-01-30T11:26:24;101748.19;;;17.63;65.45
11114;BME280;5610;52.154;9.198;2024-01-30T11:29:16;101748.56;;;18.42;63.13
11114;BME280;5610;52.154;9.198;2024-01-30T11:32:02;101734.34;;;19.96;56.27
11114;BME280;5610;52.154;9.198;2024-01-30T11:34:49;101733.09;;;20.53;53.08
11114;BME280;5610;52.154;9.198;2024-01-30T11:37:36;101730.22;;;19.81;53.84
11114;BME280;5610;52.154;9.198;2024-01-30T11:40:23;101715.59;;;18.49;56.69
11114;BME280;5610;52.154;9.198;2024-01-30T11:43:10;101720.06;;;17.54;59.57
11114;BME280;5610;52.154;9.198;2024-01-30T11:45:57;101713.63;;;17.08;61.72
11114;BME280;5610;52.154;9.198;2024-01-30T11:48:42;101714.50;;;16.83;64.69
11114;BME280;5610;52.154;9.198;2024-01-30T11:51:30;101716.88;;;17.37;64.09
11114;BME280;5610;52.154;9.198;2024-01-30T11:54:16;101720.66;;;18.19;59.33
11114;BME280;5610;52.154;9.198;2024-01-30T11:57:01;101724.63;;;18.37;58.66
11114;BME280;5610;52.154;9.198;2024-01-30T11:59:46;101729.06;;;19.07;57.18
11114;BME280;5610;52.154;9.198;2024-01-30T12:02:33;101722.16;;;19.36;55.89
11114;BME280;5610;52.154;9.198;2024-01-30T12:05:19;101727.91;;;20.09;54.37
11114;BME280;5610;52.154;9.198;2024-01-30T12:08:05;101718.44;;;21.07;51.88
11114;BME280;5610;52.154;9.198;2024-01-30T12:10:55;101711.41;;;20.74;52.76
11114;BME280;5610;52.154;9.198;2024-01-30T12:13:41;101715.38;;;20.49;53.90
11114;BME280;5610;52.154;9.198;2024-01-30T12:16:26;101708.31;;;20.16;54.37
11114;BME280;5610;52.154;9.198;2024-01-30T12:19:22;101716.16;;;20.19;52.98
11114;BME280;5610;52.154;9.198;2024-01-30T12:22:07;101726.84;;;20.21;54.90
11114;BME280;5610;52.154;9.198;2024-01-30T12:24:55;101720.06;;;21.99;50.72
11114;BME280;5610;52.154;9.198;2024-01-30T12:27:42;101719.66;;;22.42;49.26
11114;BME280;5610;52.154;9.198;2024-01-30T12:30:28;101706.97;;;21.34;50.69
11114;BME280;5610;52.154;9.198;2024-01-30T12:33:16;101719.06;;;21.80;50.27
11114;BME280;5610;52.154;9.198;2024-01-30T12:36:04;101710.00;;;21.41;51.50
11114;BME280;5610;52.154;9.198;2024-01-30T12:38:50;101720.75;;;20.08;54.27
11114;BME280;5610;52.154;9.198;2024-01-30T12:41:36;101715.75;;;20.03;55.05
11114;BME280;5610;52.154;9.198;2024-01-30T12:44:21;101730.97;;;19.49;56.14
11114;BME280;5610;52.154;9.198;2024-01-30T12:47:08;101725.25;;;18.87;57.85
11114;BME280;5610;52.154;9.198;2024-01-30T12:49:53;101718.38;;;18.25;59.75
11114;BME280;5610;52.154;9.198;2024-01-30T12:52:40;101717.16;;;17.57;61.93
11114;BME280;5610;52.154;9.198;2024-01-30T12:55:25;101719.19;;;17.05;64.47
11114;BME280;5610;52.154;9.198;2024-01-30T12:58:12;101713.69;;;16.55;69.79
11114;BME280;5610;52.154;9.198;2024-01-30T13:00:58;101718.47;;;16.12;75.56
11114;BME280;5610;52.154;9.198;2024-01-30T13:03:43;101724.91;;;15.70;81.59
11114;BME280;5610;52.154;9.198;2024-01-30T13:06:28;101717.84;;;15.40;84.87
11114;BME280;5610;52.154;9.198;2024-01-30T13:09:15;101728.63;;;15.11;89.00
11114;BME280;5610;52.154;9.198;2024-01-30T13:12:00;101731.53;;;14.80;96.50
11114;BME280;5610;52.154;9.198;2024-01-30T13:14:46;101730.34;;;14.55;99.86
11114;BME280;5610;52.154;9.198;2024-01-30T13:17:31;101726.34;;;14.33;100.00
11114;BME280;5610;52.154;9.198;2024-01-30T13:20:17;101726.81;;;14.09;100.00
11114;BME280;5610;52.154;9.198;2024-01-30T13:23:04;101737.69;;;13.92;100.00
11114;BME280;5610;52.154;9.198;2024-01-30T13:25:50;101738.38;;;13.80;100.00
11114;BME280;5610;52.154;9.198;2024-01-30T13:28:37;101748.78;;;13.70;100.00
11114;BME280;5610;52.154;9.198;2024-01-30T13:31:22;101741.28;;;13.61;100.00
11114;BME280;5610;52.154;9.198;2024-01-30T13:34:07;101740.75;;;13.54;100.00
11114;BME280;5610;52.154;9.198;2024-01-30T13:36:52;101742.91;;;13.48;100.00
11114;BME280;5610;52.154;9.198;2024-01-30T13:39:38;101728.13;;;13.40;100.00
11114;BME280;5610;52.154;9.198;2024-01-30T13:42:25;101734.94;;;13.46;100.00
11114;BME280;5610;52.154;9.198;2024-01-30T13:45:11;101733.56;;;13.55;100.00
11114;BME280;5610;52.154;9.198;2024-01-30T13:47:56;101728.13;;;13.56;100.00
11114;BME280;5610;52.154;9.198;2024-01-30T13:50:43;101745.06;;;13.57;100.00
11114;BME280;5610;52.154;9.198;2024-01-30T13:53:28;101735.81;;;13.62;100.00
11114;BME280;5610;52.154;9.198;2024-01-30T13:56:13;101733.38;;;13.58;100.00
11114;BME280;5610;52.154;9.198;2024-01-30T13:59:00;101727.16;;;13.57;100.00
11114;BME280;5610;52.154;9.198;2024-01-30T14:01:49;101723.63;;;13.57;100.00
11114;BME280;5610;52.154;9.198;2024-01-30T14:04:34;101722.78;;;13.56;100.00
11114;BME280;5610;52.154;9.198;2024-01-30T14:07:21;101729.84;;;13.57;100.00
11114;BME280;5610;52.154;9.198;2024-01-30T14:10:07;101732.00;;;13.66;100.00
11114;BME280;5610;52.154;9.198;2024-01-30T14:12:52;101722.06;;;13.68;100.00
11114;BME280;5610;52.154;9.198;2024-01-30T14:15:39;101725.44;;;13.72;100.00
11114;BME280;5610;52.154;9.198;2024-01-30T14:18:24;101723.81;;;13.69;100.00
11114;BME280;5610;52.154;9.198;2024-01-30T14:21:09;101717.25;;;13.75;100.00
11114;BME280;5610;52.154;9.198;2024-01-30T14:23:54;101727.00;;;13.76;100.00
11114;BME280;5610;52.154;9.198;2024-01-30T14:26:39;101727.84;;;13.77;100.00
11114;BME280;5610;52.154;9.198;2024-01-30T14:29:25;101727.94;;;13.75;100.00
11114;BME280;5610;52.154;9.198;2024-01-30T14:32:12;101728.81;;;13.76;100.00
11114;BME280;5610;52.154;9.198;2024-01-30T14:34:57;101727.69;;;13.64;100.00